createdAt,value
2023-06-02T00:04:47.920Z,14.60
2023-06-02T00:14:50.774Z,12.32
2023-06-02T00:24:54.820Z,13.63
2023-06-02T00:34:57.829Z,20.63
2023-06-02T00:45:01.840Z,12.48
2023-06-02T00:55:05.222Z,8.38
2023-06-02T01:05:12.012Z,14.52
2023-06-02T01:15:14.969Z,11.68
2023-06-02T01:25:26.973Z,12.80
2023-06-02T01:35:33.600Z,14.80
2023-06-02T01:45:39.037Z,12.77
2023-06-02T01:55:41.827Z,24.65
2023-06-02T02:05:45.881Z,13.73
2023-06-02T02:15:48.727Z,11.65
2023-06-02T02:25:52.986Z,20.83
2023-06-02T02:35:55.733Z,13.90
2023-06-02T02:45:59.800Z,16.23
2023-06-02T02:56:03.699Z,14.45
2023-06-02T03:06:08.507Z,20.27
2023-06-02T03:16:11.619Z,17.52
2023-06-02T03:26:15.883Z,16.02
2023-06-02T03:36:20.752Z,13.90
2023-06-02T03:46:24.820Z,15.05
2023-06-02T03:56:27.593Z,14.30
2023-06-02T04:06:31.589Z,11.90
2023-06-02T04:16:34.278Z,25.02
2023-06-02T04:26:38.440Z,14.40
2023-06-02T04:36:41.581Z,14.68
2023-06-02T04:46:45.647Z,21.67
2023-06-02T04:56:48.539Z,20.38
2023-06-02T05:06:52.689Z,25.92
2023-06-02T05:16:55.944Z,32.20
2023-06-02T05:27:00.306Z,29.33
2023-06-02T05:37:05.048Z,23.20
2023-06-02T05:47:09.645Z,23.85
2023-06-02T05:57:15.883Z,16.25
2023-06-02T06:07:20.020Z,21.90
2023-06-02T06:17:22.780Z,18.75
2023-06-02T06:27:26.923Z,24.35
2023-06-02T06:37:29.910Z,17.63
2023-06-02T06:47:34.254Z,20.65
2023-06-02T06:57:37.144Z,25.85
2023-06-02T07:07:45.229Z,24.33
2023-06-02T07:17:48.271Z,16.83
2023-06-02T07:27:54.929Z,16.17
2023-06-02T07:37:57.821Z,20.08
2023-06-02T07:48:02.015Z,14.05
2023-06-02T07:58:07.024Z,18.10
2023-06-02T08:08:11.394Z,15.18
2023-06-02T08:18:15.937Z,13.15
2023-06-02T08:28:25.838Z,12.98
2023-06-02T08:38:30.767Z,7.60
2023-06-02T08:48:41.804Z,10.77
2023-06-02T08:58:46.178Z,7.22
2023-06-02T09:08:58.929Z,7.28
2023-06-02T09:19:02.213Z,5.93
2023-06-02T09:29:09.123Z,9.98
2023-06-02T09:39:12.203Z,4.20
2023-06-02T09:49:21.039Z,4.55
2023-06-02T09:59:23.892Z,3.00
2023-06-02T10:09:44.664Z,2.55
2023-06-02T10:20:20.643Z,4.28
2023-06-02T10:30:32.590Z,4.82
2023-06-02T10:40:50.832Z,4.72
2023-06-02T10:50:56.011Z,7.17
2023-06-02T11:01:12.572Z,5.75
2023-06-02T11:11:57.053Z,6.65
2023-06-02T11:22:06.547Z,4.88
2023-06-02T11:32:21.711Z,7.15
2023-06-02T11:42:37.714Z,6.30
2023-06-02T11:52:44.692Z,6.03
2023-06-02T12:02:54.203Z,6.93
2023-06-02T12:12:58.478Z,7.50
2023-06-02T12:23:01.178Z,7.10
2023-06-02T12:33:12.656Z,7.20
2023-06-02T12:43:15.970Z,5.22
2023-06-02T12:53:20.620Z,4.80
2023-06-02T13:03:23.591Z,13.85
2023-06-02T13:13:28.336Z,9.70
2023-06-02T13:23:32.250Z,6.78
2023-06-02T13:33:37.488Z,8.80
2023-06-02T13:43:40.174Z,7.57
2023-06-02T13:53:44.293Z,6.28
2023-06-02T14:03:50.055Z,8.65
2023-06-02T14:13:57.623Z,5.82
2023-06-02T14:24:00.284Z,9.23
2023-06-02T14:34:10.159Z,6.95
2023-06-02T14:44:13.028Z,5.75
2023-06-02T14:54:18.273Z,8.30
2023-06-02T15:04:21.514Z,9.15
2023-06-02T15:14:35.620Z,7.90
2023-06-02T15:24:38.363Z,7.32
2023-06-02T15:34:42.832Z,4.13
2023-06-02T15:44:45.718Z,7.63
2023-06-02T15:54:50.164Z,7.82
2023-06-02T16:04:52.860Z,6.28
2023-06-02T16:14:57.069Z,4.07
2023-06-02T16:24:59.809Z,5.78
2023-06-02T16:35:04.541Z,6.75
2023-06-02T16:45:08.594Z,7.47
2023-06-02T16:55:12.658Z,8.35
2023-06-02T17:05:16.181Z,6.78
2023-06-02T17:15:20.245Z,5.93
2023-06-02T17:25:24.014Z,6.35
2023-06-02T17:35:28.393Z,6.55
2023-06-02T17:45:31.128Z,7.78
2023-06-02T17:55:35.443Z,5.82
2023-06-02T18:05:38.603Z,6.68
2023-06-02T18:15:42.698Z,3.60
2023-06-02T18:25:45.550Z,5.65
2023-06-02T18:35:49.542Z,4.72
2023-06-02T18:45:52.392Z,10.57
2023-06-02T18:55:56.815Z,8.23
2023-06-02T19:05:59.725Z,4.45
2023-06-02T19:16:04.040Z,6.82
2023-06-02T19:26:07.278Z,3.92
2023-06-02T19:36:11.407Z,5.78
2023-06-02T19:46:16.723Z,3.92
2023-06-02T19:56:20.785Z,2.30
2023-06-02T20:06:23.629Z,13.18
2023-06-02T20:16:27.830Z,4.45
2023-06-02T20:26:30.541Z,4.15
2023-06-02T20:36:34.527Z,5.85
2023-06-02T20:46:37.267Z,3.58
2023-06-02T20:56:41.718Z,1.80
2023-06-02T21:06:44.612Z,2.38
2023-06-02T21:16:48.715Z,2.58
2023-06-02T21:26:51.428Z,3.25
2023-06-02T21:36:55.589Z,4.00
2023-06-02T21:46:58.408Z,2.85
2023-06-02T21:57:02.710Z,3.60
2023-06-02T22:07:05.980Z,2.17
2023-06-02T22:17:10.025Z,2.95
2023-06-02T22:27:12.952Z,2.72
2023-06-02T22:37:17.168Z,1.98
2023-06-02T22:47:19.910Z,2.55
2023-06-02T22:57:25.366Z,2.90
2023-06-02T23:07:28.934Z,1.92
2023-06-02T23:17:32.978Z,4.50
2023-06-02T23:27:35.679Z,9.70
2023-06-02T23:37:39.800Z,4.93
2023-06-02T23:47:42.652Z,3.10
2023-06-02T23:57:46.708Z,3.65
